Time;durP1;ratioP1;P1;durP2;ratioP2;P2;SDS_P1;SDS_P2;PMS_P1;PMS_P2;Temp;Humidity;BMP_temperature;BMP_pressure;BME280_temperature;BME280_humidity;BME280_pressure;Samples;Min_cycle;Max_cycle;Signal;HPM_P1;HPM_P2
2023/07/27 00:01:34;;;;;;;3.75;1.67;;;20.70;65.10;;;;;;10409040;28;20375;-57
2023/07/27 00:06:35;;;;;;;2.58;1.73;;;20.80;65.20;;;;;;10409401;28;20029;-57
2023/07/27 00:11:35;;;;;;;3.85;2.03;;;20.70;65.20;;;;;;10384803;28;20640;-57
2023/07/27 00:16:36;;;;;;;4.25;1.92;;;20.70;65.20;;;;;;10395044;28;20042;-57
2023/07/27 00:21:37;;;;;;;4.05;2.13;;;20.70;65.20;;;;;;10409582;28;20021;-56
2023/07/27 00:26:38;;;;;;;2.25;1.77;;;20.70;65.20;;;;;;10409697;28;20464;-57
2023/07/27 00:31:38;;;;;;;2.72;1.98;;;20.70;65.20;;;;;;10409744;28;20571;-57
2023/07/27 00:36:39;;;;;;;2.80;1.80;;;20.70;65.20;;;;;;10410218;28;20018;-56
2023/07/27 00:41:41;;;;;;;3.13;2.15;;;20.70;65.20;;;;;;10408893;28;20073;-57
2023/07/27 00:46:42;;;;;;;3.22;1.60;;;20.80;65.50;;;;;;10408633;28;20041;-57
2023/07/27 00:51:44;;;;;;;2.90;1.90;;;20.70;65.20;;;;;;10406763;28;20052;-57
2023/07/27 00:56:45;;;;;;;2.90;1.88;;;20.70;65.10;;;;;;10390543;28;20026;-56
2023/07/27 01:01:46;;;;;;;3.83;2.00;;;20.70;65.00;;;;;;10407077;28;20389;-57
2023/07/27 01:06:46;;;;;;;2.20;1.45;;;20.70;65.20;;;;;;10407912;28;20097;-57
2023/07/27 01:12:08;;;;;;;3.28;2.08;;;20.70;65.10;;;;;;10406398;28;20045;-57
2023/07/27 01:17:24;;;;;;;3.20;1.92;;;20.70;65.10;;;;;;10397361;28;20038;-56
2023/07/27 01:22:31;;;;;;;2.80;1.67;;;20.70;65.10;;;;;;10407461;28;20032;-57
2023/07/27 01:28:07;;;;;;;2.28;1.42;;;20.70;65.10;;;;;;10406971;28;20026;-58
2023/07/27 01:33:14;;;;;;;3.40;1.77;;;20.70;65.20;;;;;;10406671;28;20033;-57
2023/07/27 01:38:16;;;;;;;2.85;2.38;;;20.70;65.20;;;;;;10405251;28;20051;-56
2023/07/27 01:43:17;;;;;;;3.45;1.98;;;20.70;65.20;;;;;;10406836;28;20447;-56
2023/07/27 01:48:19;;;;;;;2.95;1.60;;;20.70;65.30;;;;;;10405198;28;20029;-56
2023/07/27 01:53:22;;;;;;;2.58;1.63;;;20.70;65.30;;;;;;10404177;28;20034;-56
2023/07/27 01:58:26;;;;;;;2.97;1.63;;;20.70;65.30;;;;;;10405005;28;20346;-57
2023/07/27 02:03:27;;;;;;;2.33;1.40;;;20.70;65.40;;;;;;10405979;28;20030;-57
2023/07/27 02:08:27;;;;;;;3.10;1.95;;;20.60;65.40;;;;;;10405381;28;20382;-57
2023/07/27 02:13:51;;;;;;;2.67;1.95;;;20.70;65.40;;;;;;10365828;28;20033;-57
2023/07/27 02:18:54;;;;;;;3.58;1.75;;;20.60;65.40;;;;;;10403937;28;20017;-57
2023/07/27 02:23:57;;;;;;;2.97;1.80;;;20.60;65.40;;;;;;10387464;28;20575;-58
2023/07/27 02:28:58;;;;;;;3.10;1.98;;;20.60;65.50;;;;;;10403735;28;20469;-58
2023/07/27 02:33:58;;;;;;;3.75;1.70;;;20.60;65.50;;;;;;10404556;28;20021;-58
2023/07/27 02:39:00;;;;;;;2.58;1.58;;;20.60;65.50;;;;;;10404800;28;20582;-56
2023/07/27 02:44:01;;;;;;;3.00;1.65;;;20.60;65.50;;;;;;10404803;28;20026;-57
2023/07/27 02:49:02;;;;;;;3.30;1.95;;;20.60;65.50;;;;;;10404854;28;20026;-58
2023/07/27 02:54:02;;;;;;;2.80;1.50;;;20.60;65.50;;;;;;10404424;28;20117;-56
2023/07/27 02:59:03;;;;;;;2.72;1.70;;;20.60;65.60;;;;;;10403768;28;20028;-57
2023/07/27 03:04:04;;;;;;;3.72;1.95;;;20.60;65.60;;;;;;10405862;28;20429;-57
2023/07/27 03:09:05;;;;;;;3.67;1.90;;;20.60;65.60;;;;;;10408371;28;20057;-56
2023/07/27 03:14:05;;;;;;;2.60;1.50;;;20.60;65.60;;;;;;10377191;28;20030;-57
2023/07/27 03:19:06;;;;;;;3.72;1.92;;;20.60;65.70;;;;;;10412205;28;20104;-57
2023/07/27 03:24:07;;;;;;;3.30;1.40;;;20.60;65.70;;;;;;10411994;28;20022;-57
2023/07/27 03:29:08;;;;;;;3.10;2.50;;;20.60;65.80;;;;;;10412013;28;20550;-56
2023/07/27 03:34:08;;;;;;;2.75;1.80;;;20.60;65.80;;;;;;10409326;28;20032;-56
2023/07/27 03:39:09;;;;;;;4.20;2.03;;;20.60;65.80;;;;;;10404386;28;20018;-57
2023/07/27 03:44:14;;;;;;;2.72;2.00;;;20.60;65.70;;;;;;10403976;28;20025;-55
2023/07/27 03:49:14;;;;;;;4.28;1.80;;;20.60;66.50;;;;;;10402592;28;20472;-55
2023/07/27 03:54:15;;;;;;;4.50;2.30;;;20.70;65.80;;;;;;10403405;28;20120;-56
2023/07/27 03:59:16;;;;;;;2.95;2.00;;;20.70;65.50;;;;;;10400281;28;20093;-56
2023/07/27 04:04:16;;;;;;;3.15;2.03;;;20.70;66.00;;;;;;10404526;28;20465;-56
2023/07/27 04:09:17;;;;;;;3.17;2.00;;;20.70;66.60;;;;;;10401688;28;20049;-56
2023/07/27 04:14:18;;;;;;;3.88;2.97;;;20.70;66.40;;;;;;10397994;28;20492;-55
2023/07/27 04:19:18;;;;;;;3.75;2.72;;;20.70;66.10;;;;;;10367196;28;20097;-55
2023/07/27 04:24:19;;;;;;;3.40;2.58;;;20.60;66.30;;;;;;10361495;28;20097;-56
2023/07/27 04:29:20;;;;;;;5.20;2.75;;;20.60;66.40;;;;;;10362640;28;20493;-56
2023/07/27 04:34:21;;;;;;;4.30;2.53;;;20.60;66.40;;;;;;10365142;28;20117;-55
2023/07/27 04:39:21;;;;;;;3.95;2.33;;;20.60;66.50;;;;;;10361570;28;20068;-55
2023/07/27 04:44:22;;;;;;;3.28;2.08;;;20.60;66.60;;;;;;10362995;28;20030;-56
2023/07/27 04:49:23;;;;;;;3.55;2.30;;;20.60;66.50;;;;;;10364565;28;20458;-57
2023/07/27 04:54:23;;;;;;;3.50;2.13;;;20.60;66.50;;;;;;10372391;28;20546;-56
2023/07/27 04:59:24;;;;;;;4.75;2.83;;;20.50;66.50;;;;;;10365665;28;20330;-57
2023/07/27 05:04:25;;;;;;;4.90;2.70;;;20.60;66.60;;;;;;10379292;28;20032;-56
2023/07/27 05:09:25;;;;;;;5.70;2.88;;;20.60;67.10;;;;;;10405714;28;20047;-55
2023/07/27 05:14:26;;;;;;;4.05;2.47;;;20.60;67.20;;;;;;10398922;28;20112;-55
2023/07/27 05:19:27;;;;;;;4.78;2.70;;;20.70;66.90;;;;;;10401378;28;20024;-55
2023/07/27 05:24:27;;;;;;;3.95;2.17;;;20.70;66.30;;;;;;10401615;28;20108;-53
2023/07/27 05:29:28;;;;;;;7.32;2.60;;;20.80;67.10;;;;;;10404610;28;20105;-55
2023/07/27 05:34:29;;;;;;;5.38;2.78;;;20.70;66.50;;;;;;10405216;28;20570;-56
2023/07/27 05:39:29;;;;;;;11.20;2.60;;;20.70;66.60;;;;;;10405335;28;20610;-55
2023/07/27 05:44:30;;;;;;;7.68;2.40;;;20.80;66.60;;;;;;10404686;28;20028;-56
2023/07/27 05:49:31;;;;;;;7.30;2.50;;;20.80;66.70;;;;;;10381287;28;20109;-56
2023/07/27 05:54:32;;;;;;;7.57;2.70;;;20.80;67.50;;;;;;10363597;28;20112;-55
2023/07/27 05:59:33;;;;;;;9.05;2.58;;;20.80;67.30;;;;;;10367942;28;20021;-56
2023/07/27 06:04:34;;;;;;;13.13;2.33;;;20.90;67.80;;;;;;10371516;28;20432;-55
2023/07/27 06:09:36;;;;;;;7.70;2.80;;;20.90;67.60;;;;;;10382096;28;20034;-54
2023/07/27 06:14:40;;;;;;;7.35;2.50;;;20.90;68.00;;;;;;10384037;28;20037;-55
2023/07/27 06:19:41;;;;;;;13.20;2.47;;;21.00;68.20;;;;;;10381343;28;20022;-56
2023/07/27 06:24:41;;;;;;;5.65;2.42;;;21.00;68.10;;;;;;10382954;28;20432;-55
2023/07/27 06:29:42;;;;;;;10.02;3.05;;;21.00;68.20;;;;;;10382072;28;20136;-55
2023/07/27 06:34:43;;;;;;;12.30;2.67;;;21.00;68.20;;;;;;10382348;28;20042;-56
2023/07/27 06:39:43;;;;;;;6.88;2.20;;;20.90;68.00;;;;;;10380249;28;20088;-54
2023/07/27 06:44:44;;;;;;;11.45;2.78;;;20.90;68.50;;;;;;10371318;28;20628;-55
2023/07/27 06:49:45;;;;;;;12.43;3.20;;;21.00;68.30;;;;;;10362150;28;20101;-54
2023/07/27 06:54:45;;;;;;;13.00;2.28;;;21.10;68.20;;;;;;10362285;28;20030;-55
2023/07/27 06:59:46;;;;;;;15.43;3.60;;;21.10;68.30;;;;;;10367276;28;20104;-55
2023/07/27 07:04:47;;;;;;;22.02;4.10;;;21.10;68.50;;;;;;10366819;28;20120;-56
2023/07/27 07:09:47;;;;;;;12.10;2.92;;;21.10;68.60;;;;;;10379263;28;20417;-53
2023/07/27 07:14:48;;;;;;;14.32;3.22;;;21.10;68.90;;;;;;10379060;28;20507;-55
2023/07/27 07:19:49;;;;;;;15.13;3.33;;;21.00;69.30;;;;;;10383293;28;20049;-55
2023/07/27 07:24:49;;;;;;;10.23;3.38;;;21.00;69.80;;;;;;10383893;28;20034;-56
2023/07/27 07:29:50;;;;;;;10.82;2.70;;;21.00;69.50;;;;;;10381230;28;20072;-55
2023/07/27 07:34:54;;;;;;;15.93;3.72;;;21.00;69.40;;;;;;10383957;28;20464;-55
2023/07/27 07:39:55;;;;;;;11.35;3.55;;;21.10;69.70;;;;;;10385830;28;20135;-57
2023/07/27 07:44:55;;;;;;;15.60;3.38;;;21.20;69.40;;;;;;10360506;28;20169;-54
2023/07/27 07:49:58;;;;;;;24.15;4.47;;;21.20;69.30;;;;;;10360510;28;20076;-56
2023/07/27 07:54:59;;;;;;;25.45;4.07;;;21.20;69.40;;;;;;10381090;28;20148;-54
2023/07/27 08:00:00;;;;;;;17.85;3.63;;;21.20;69.60;;;;;;10367770;28;20042;-54
2023/07/27 08:05:00;;;;;;;15.18;3.50;;;21.20;69.80;;;;;;10368085;28;20121;-55
2023/07/27 08:10:02;;;;;;;11.95;2.85;;;21.20;69.80;;;;;;10397532;28;20100;-53
2023/07/27 08:15:03;;;;;;;10.38;3.10;;;21.10;69.80;;;;;;10382054;28;20107;-55
2023/07/27 08:20:05;;;;;;;16.63;3.50;;;21.10;70.00;;;;;;10407943;28;20024;-55
2023/07/27 08:25:06;;;;;;;18.83;3.58;;;21.10;70.00;;;;;;10403493;28;20029;-57
2023/07/27 08:30:08;;;;;;;15.80;3.13;;;21.10;69.90;;;;;;10381519;28;20079;-54
2023/07/27 08:35:08;;;;;;;13.13;2.55;;;21.00;70.00;;;;;;10385644;28;20067;-56
2023/07/27 08:40:10;;;;;;;13.15;3.70;;;21.00;70.10;;;;;;10388849;28;20116;-54
2023/07/27 08:45:16;;;;;;;13.38;2.72;;;21.00;70.00;;;;;;10384423;28;20445;-54
2023/07/27 08:50:18;;;;;;;10.30;2.63;;;21.00;70.20;;;;;;10392408;28;20033;-52
2023/07/27 08:55:18;;;;;;;11.40;2.72;;;21.00;70.10;;;;;;10382543;28;20040;-55
2023/07/27 09:00:20;;;;;;;15.90;3.35;;;21.00;69.90;;;;;;10365707;28;20122;-53
2023/07/27 09:05:21;;;;;;;7.65;2.50;;;21.00;69.80;;;;;;10376972;28;20014;-56
2023/07/27 09:10:22;;;;;;;5.72;2.15;;;20.90;69.70;;;;;;10391389;28;20394;-54
2023/07/27 09:15:23;;;;;;;6.07;1.80;;;20.90;69.80;;;;;;10380007;28;20396;-55
2023/07/27 09:20:28;;;;;;;7.05;2.70;;;20.90;69.90;;;;;;10402153;28;20029;-55
2023/07/27 09:25:29;;;;;;;9.00;2.10;;;20.90;70.10;;;;;;10371518;28;20026;-56
2023/07/27 09:30:34;;;;;;;10.25;2.72;;;20.90;70.20;;;;;;10364372;28;20527;-56
2023/07/27 09:35:36;;;;;;;9.95;2.38;;;20.90;70.30;;;;;;10372023;28;20044;-55
2023/07/27 09:40:37;;;;;;;13.57;3.63;;;20.90;70.50;;;;;;10367775;28;20046;-54
2023/07/27 09:45:38;;;;;;;7.03;2.58;;;20.90;70.20;;;;;;10366720;28;20030;-57
2023/07/27 09:50:41;;;;;;;9.68;2.65;;;20.90;71.20;;;;;;10380531;28;20065;-55
2023/07/27 09:55:42;;;;;;;14.25;2.90;;;21.00;71.00;;;;;;10362160;28;20030;-55
2023/07/27 10:00:43;;;;;;;16.20;3.22;;;21.10;71.00;;;;;;10364485;28;20514;-57
2023/07/27 10:05:44;;;;;;;9.77;2.47;;;21.10;71.00;;;;;;10390279;28;20112;-52
2023/07/27 10:10:51;;;;;;;25.17;3.92;;;21.10;71.60;;;;;;10396187;28;20026;-54
2023/07/27 10:15:54;;;;;;;8.13;2.72;;;21.10;70.80;;;;;;10399239;28;20369;-55
2023/07/27 10:21:16;;;;;;;17.35;3.17;;;21.10;71.20;;;;;;10389386;28;20100;-57
2023/07/27 10:26:17;;;;;;;12.05;2.72;;;21.10;71.10;;;;;;10377593;28;20039;-55
2023/07/27 10:31:25;;;;;;;21.45;3.45;;;21.10;71.30;;;;;;10393488;28;20047;-55
2023/07/27 10:36:52;;;;;;;17.38;3.08;;;21.20;71.30;;;;;;10362517;28;20048;-56
2023/07/27 10:42:16;;;;;;;12.82;3.17;;;21.30;71.40;;;;;;10361540;28;20044;-57
2023/07/27 10:47:26;;;;;;;15.98;3.40;;;21.30;71.60;;;;;;10372659;28;20049;-55
2023/07/27 10:52:33;;;;;;;13.15;2.58;;;21.20;71.50;;;;;;10404527;28;20037;-55
2023/07/27 10:57:34;;;;;;;11.38;2.85;;;21.20;71.50;;;;;;10393528;28;20072;-55
2023/07/27 11:02:36;;;;;;;29.60;3.90;;;21.20;71.70;;;;;;10387881;28;20025;-55
2023/07/27 11:07:40;;;;;;;19.63;3.53;;;21.20;71.70;;;;;;10399527;28;20452;-54
2023/07/27 11:13:00;;;;;;;10.38;2.47;;;21.20;71.50;;;;;;10399123;28;20380;-57
2023/07/27 11:18:00;;;;;;;20.15;3.83;;;21.20;71.80;;;;;;10391273;28;20390;-56
2023/07/27 11:23:01;;;;;;;9.00;3.00;;;21.20;71.70;;;;;;10391780;28;20301;-55
2023/07/27 11:28:02;;;;;;;9.85;2.50;;;21.20;71.70;;;;;;10373479;28;20387;-54
2023/07/27 11:33:05;;;;;;;26.98;3.80;;;21.20;71.80;;;;;;10391680;28;20370;-56
2023/07/27 11:38:05;;;;;;;20.02;4.38;;;21.10;72.00;;;;;;10367747;28;20852;-54
2023/07/27 11:43:06;;;;;;;25.83;4.50;;;21.10;72.10;;;;;;10377626;28;20104;-55
2023/07/27 11:48:07;;;;;;;11.15;2.58;;;21.10;72.20;;;;;;10375260;28;20045;-56
2023/07/27 11:53:09;;;;;;;8.75;2.92;;;21.10;72.00;;;;;;10349373;28;20034;-56
2023/07/27 11:58:11;;;;;;;14.13;3.45;;;21.10;71.90;;;;;;10366197;28;20017;-56
2023/07/27 12:03:11;;;;;;;11.02;2.45;;;21.10;71.90;;;;;;10366107;28;20362;-55
2023/07/27 12:08:20;;;;;;;16.63;4.28;;;21.00;71.80;;;;;;10378511;28;20022;-55
2023/07/27 12:13:22;;;;;;;9.10;3.03;;;21.00;71.80;;;;;;10369190;28;20121;-57
2023/07/27 12:18:28;;;;;;;10.10;2.20;;;21.00;71.80;;;;;;10408038;28;20024;-55
2023/07/27 12:23:28;;;;;;;7.40;3.15;;;21.00;71.80;;;;;;10407882;28;20021;-56
2023/07/27 12:28:31;;;;;;;14.80;3.15;;;21.00;71.80;;;;;;10408046;28;20053;-56
2023/07/27 12:33:31;;;;;;;9.60;2.58;;;21.00;71.90;;;;;;10407270;28;20043;-57
2023/07/27 12:38:32;;;;;;;7.53;1.90;;;21.00;71.70;;;;;;10407240;28;20361;-56
2023/07/27 12:43:33;;;;;;;7.70;2.35;;;21.00;71.60;;;;;;10407180;28;20237;-56
2023/07/27 12:48:33;;;;;;;4.50;1.75;;;20.90;71.50;;;;;;10407145;28;20110;-56
2023/07/27 12:53:34;;;;;;;4.18;1.90;;;20.90;71.50;;;;;;10407120;28;20109;-58
2023/07/27 12:58:35;;;;;;;4.30;2.22;;;21.00;71.70;;;;;;10407295;28;20021;-55
2023/07/27 13:03:37;;;;;;;3.83;2.20;;;20.90;71.50;;;;;;10406646;28;20060;-57
2023/07/27 13:08:38;;;;;;;6.25;1.95;;;21.00;71.80;;;;;;10406664;28;20398;-55
2023/07/27 13:13:39;;;;;;;4.20;1.80;;;20.90;71.60;;;;;;10403967;28;20070;-56
2023/07/27 13:18:39;;;;;;;2.78;1.95;;;20.90;71.70;;;;;;10365551;28;20154;-56
2023/07/27 13:23:40;;;;;;;3.40;1.35;;;20.90;71.60;;;;;;10365426;28;20068;-56
2023/07/27 13:28:41;;;;;;;3.65;1.83;;;21.00;71.80;;;;;;10364656;28;20105;-57
2023/07/27 13:33:41;;;;;;;5.68;1.58;;;20.90;71.90;;;;;;10364229;28;20497;-55
2023/07/27 13:38:42;;;;;;;3.85;1.60;;;20.90;71.80;;;;;;10379730;28;20083;-57
2023/07/27 13:43:43;;;;;;;3.92;1.95;;;20.90;71.90;;;;;;10364003;28;20133;-57
2023/07/27 13:48:43;;;;;;;2.90;1.30;;;20.90;71.80;;;;;;10363219;28;20100;-57
2023/07/27 13:53:44;;;;;;;2.70;1.27;;;20.90;71.90;;;;;;10363869;28;20032;-57
2023/07/27 13:58:45;;;;;;;2.72;1.45;;;20.90;71.90;;;;;;10363516;28;20089;-56
2023/07/27 14:03:45;;;;;;;2.70;1.65;;;20.90;71.90;;;;;;10363895;28;20026;-56
2023/07/27 14:08:46;;;;;;;3.25;1.23;;;20.90;72.00;;;;;;10376740;28;20104;-56
2023/07/27 14:13:46;;;;;;;2.15;0.95;;;20.90;72.10;;;;;;10366277;28;20116;-56
2023/07/27 14:18:47;;;;;;;2.88;1.40;;;20.90;72.10;;;;;;10378447;28;20021;-55
2023/07/27 14:23:48;;;;;;;1.67;1.00;;;20.90;72.20;;;;;;10362997;28;20493;-57
2023/07/27 14:28:48;;;;;;;3.80;1.10;;;20.90;72.20;;;;;;10362646;28;20113;-56
2023/07/27 14:33:53;;;;;;;2.67;1.50;;;20.90;72.20;;;;;;10362842;28;20121;-57
2023/07/27 14:38:54;;;;;;;2.00;0.93;;;20.90;72.40;;;;;;10360917;28;20025;-57
2023/07/27 14:43:54;;;;;;;6.05;1.35;;;20.90;72.20;;;;;;10383506;28;20025;-57
2023/07/27 14:48:55;;;;;;;2.03;1.30;;;20.90;72.50;;;;;;10403043;28;20018;-55
2023/07/27 14:53:56;;;;;;;1.67;1.15;;;20.80;72.40;;;;;;10401493;28;20033;-55
2023/07/27 14:58:56;;;;;;;1.15;1.00;;;20.90;72.40;;;;;;10403500;28;20500;-55
2023/07/27 15:03:57;;;;;;;2.97;1.33;;;20.90;72.40;;;;;;10409766;28;20055;-56
2023/07/27 15:09:00;;;;;;;2.25;0.93;;;20.90;72.50;;;;;;10407290;28;20300;-55
2023/07/27 15:14:00;;;;;;;1.77;1.35;;;20.90;72.70;;;;;;10374967;28;20384;-56
2023/07/27 15:19:01;;;;;;;4.22;1.33;;;20.90;72.60;;;;;;10409782;28;20022;-56
2023/07/27 15:24:02;;;;;;;14.57;2.88;;;20.90;73.00;;;;;;10378775;28;20030;-57
2023/07/27 15:29:03;;;;;;;22.40;7.88;;;21.00;73.20;;;;;;10378363;28;20064;-55
2023/07/27 15:34:03;;;;;;;24.67;9.55;;;21.10;74.60;;;;;;10389291;28;20124;-57
2023/07/27 15:39:04;;;;;;;37.28;8.52;;;21.20;75.00;;;;;;10381735;28;20707;-56
2023/07/27 15:44:05;;;;;;;36.92;8.80;;;21.20;74.90;;;;;;10387861;28;20040;-57
2023/07/27 15:49:05;;;;;;;27.08;7.22;;;21.50;79.20;;;;;;10394951;28;20717;-55
2023/07/27 15:54:06;;;;;;;21.60;6.38;;;21.70;78.90;;;;;;10383980;28;20137;-57
2023/07/27 15:59:07;;;;;;;20.35;6.28;;;21.70;78.00;;;;;;10370622;28;20083;-53
2023/07/27 16:04:07;;;;;;;21.25;6.05;;;21.80;77.70;;;;;;10380678;28;20014;-56
2023/07/27 16:09:08;;;;;;;18.33;4.25;;;21.70;76.50;;;;;;10383256;28;20116;-56
2023/07/27 16:14:08;;;;;;;16.70;4.97;;;21.70;76.80;;;;;;10375431;28;20116;-55
2023/07/27 16:19:09;;;;;;;28.05;8.13;;;21.70;76.30;;;;;;10383316;28;20022;-57
2023/07/27 16:24:10;;;;;;;19.45;5.32;;;21.70;76.20;;;;;;10401544;28;20060;-55
2023/07/27 16:29:10;;;;;;;19.13;4.38;;;21.60;76.30;;;;;;10407272;28;20056;-56
2023/07/27 16:34:11;;;;;;;32.05;5.90;;;21.50;76.40;;;;;;10405558;28;20132;-55
2023/07/27 16:39:12;;;;;;;23.67;5.97;;;21.40;76.30;;;;;;10375884;28;20064;-55
2023/07/27 16:44:12;;;;;;;25.00;4.47;;;21.50;76.70;;;;;;10391326;28;20056;-57
2023/07/27 16:49:14;;;;;;;12.52;4.35;;;21.50;76.20;;;;;;10390842;28;20026;-56
2023/07/27 16:54:14;;;;;;;19.98;4.53;;;21.50;76.10;;;;;;10394564;28;20033;-56
2023/07/27 16:59:15;;;;;;;15.55;3.92;;;21.50;76.00;;;;;;10381720;28;20114;-58
2023/07/27 17:04:16;;;;;;;16.08;3.72;;;21.50;76.00;;;;;;10379733;28;20168;-55
2023/07/27 17:09:16;;;;;;;11.95;3.22;;;21.50;75.80;;;;;;10380940;28;20504;-57
2023/07/27 17:14:17;;;;;;;10.55;3.30;;;21.40;75.60;;;;;;10378355;28;20121;-56
2023/07/27 17:19:17;;;;;;;10.13;3.45;;;21.40;75.80;;;;;;10397686;28;20144;-56
2023/07/27 17:24:18;;;;;;;11.57;2.85;;;21.40;75.80;;;;;;10406837;28;20056;-57
2023/07/27 17:29:19;;;;;;;7.15;2.88;;;21.30;75.80;;;;;;10407889;28;20481;-56
2023/07/27 17:34:19;;;;;;;11.95;2.92;;;21.30;75.70;;;;;;10368271;28;20180;-57
2023/07/27 17:39:21;;;;;;;11.70;3.80;;;21.30;75.60;;;;;;10366307;28;20210;-58
2023/07/27 17:44:21;;;;;;;9.27;2.83;;;21.30;75.50;;;;;;10366321;28;20021;-57
2023/07/27 17:49:22;;;;;;;9.18;2.63;;;21.30;75.50;;;;;;10368299;28;20061;-56
2023/07/27 17:54:23;;;;;;;12.57;3.20;;;21.20;75.30;;;;;;10400736;28;20038;-55
2023/07/27 17:59:23;;;;;;;9.98;2.70;;;21.20;75.40;;;;;;10385014;28;20675;-57
2023/07/27 18:04:24;;;;;;;6.90;2.95;;;21.20;75.40;;;;;;10400546;28;20099;-56
2023/07/27 18:09:25;;;;;;;7.05;2.47;;;21.20;75.30;;;;;;10353510;28;20109;-56
2023/07/27 18:14:25;;;;;;;10.82;2.25;;;21.20;75.30;;;;;;10368922;28;20042;-55
2023/07/27 18:19:26;;;;;;;6.65;2.38;;;21.20;75.40;;;;;;10405862;28;20055;-57
2023/07/27 18:24:27;;;;;;;8.60;2.78;;;21.10;75.20;;;;;;10405866;28;20554;-57
2023/07/27 18:29:27;;;;;;;6.70;2.55;;;21.10;75.30;;;;;;10388930;28;20029;-57
2023/07/27 18:34:28;;;;;;;9.88;2.58;;;21.10;75.20;;;;;;10396552;28;20129;-57
2023/07/27 18:39:28;;;;;;;8.18;2.33;;;21.10;75.20;;;;;;10369078;28;20120;-57
2023/07/27 18:44:33;;;;;;;11.10;2.50;;;21.10;75.20;;;;;;10388790;28;20441;-56
2023/07/27 18:49:33;;;;;;;7.60;2.25;;;21.10;75.20;;;;;;10369202;28;20034;-57
2023/07/27 18:54:34;;;;;;;12.00;2.20;;;21.00;75.30;;;;;;10339870;28;20057;-56
2023/07/27 18:59:35;;;;;;;5.72;1.80;;;21.00;75.30;;;;;;10359374;28;20104;-56
2023/07/27 19:04:35;;;;;;;4.57;1.75;;;21.10;75.40;;;;;;10356222;28;20113;-55
2023/07/27 19:09:36;;;;;;;4.95;1.90;;;21.10;75.50;;;;;;10358884;28;20114;-56
2023/07/27 19:14:37;;;;;;;9.48;2.40;;;21.10;75.30;;;;;;10362585;28;20421;-57
2023/07/27 19:19:37;;;;;;;8.48;3.22;;;21.20;75.10;;;;;;10360158;28;20105;-56
2023/07/27 19:24:38;;;;;;;5.35;1.92;;;21.10;75.20;;;;;;10337696;28;20061;-56
2023/07/27 19:29:40;;;;;;;3.42;1.50;;;21.10;75.10;;;;;;10359905;28;20018;-56
2023/07/27 19:34:41;;;;;;;6.97;2.00;;;21.00;75.10;;;;;;10364368;28;20065;-58
2023/07/27 19:39:42;;;;;;;2.53;1.25;;;21.00;75.10;;;;;;10362922;28;20038;-57
2023/07/27 19:44:42;;;;;;;4.40;1.33;;;21.00;75.20;;;;;;10363093;28;20105;-57
2023/07/27 19:49:43;;;;;;;6.60;2.22;;;20.90;75.70;;;;;;10369665;28;20101;-57
2023/07/27 19:54:44;;;;;;;3.63;1.25;;;20.90;75.00;;;;;;10370523;28;20030;-58
2023/07/27 19:59:45;;;;;;;3.10;1.45;;;20.90;74.90;;;;;;10385590;28;20100;-57
2023/07/27 20:04:45;;;;;;;4.38;1.48;;;20.90;74.80;;;;;;10370085;28;20029;-58
2023/07/27 20:09:46;;;;;;;4.18;1.60;;;20.90;74.60;;;;;;10360102;28;20077;-57
2023/07/27 20:14:48;;;;;;;5.03;1.58;;;20.90;74.60;;;;;;10340460;28;20036;-57
2023/07/27 20:19:48;;;;;;;4.22;1.50;;;20.90;74.30;;;;;;10367898;28;20104;-56
2023/07/27 20:24:49;;;;;;;7.25;2.00;;;20.80;74.60;;;;;;10369522;28;20116;-56
2023/07/27 20:29:50;;;;;;;5.78;1.77;;;20.90;74.40;;;;;;10368873;28;20079;-56
2023/07/27 20:34:51;;;;;;;3.53;1.40;;;20.80;74.50;;;;;;10368410;28;20058;-56
2023/07/27 20:39:51;;;;;;;4.15;2.15;;;20.80;74.40;;;;;;10368051;28;20641;-57
2023/07/27 20:44:55;;;;;;;4.80;1.85;;;20.80;74.20;;;;;;10368199;28;20026;-57
2023/07/27 20:49:56;;;;;;;2.92;1.40;;;20.80;74.20;;;;;;10341204;28;20537;-56
2023/07/27 20:54:57;;;;;;;5.80;0.95;;;20.90;74.40;;;;;;10327646;28;20036;-58
2023/07/27 20:59:58;;;;;;;5.47;1.38;;;20.80;74.30;;;;;;10326927;28;20643;-56
2023/07/27 21:04:58;;;;;;;3.42;1.30;;;20.80;74.40;;;;;;10327047;28;20109;-57
2023/07/27 21:09:59;;;;;;;2.80;1.30;;;20.80;74.50;;;;;;10340816;28;20022;-57
2023/07/27 21:15:00;;;;;;;2.53;1.25;;;20.80;74.30;;;;;;10339459;28;20121;-56
2023/07/27 21:20:01;;;;;;;5.50;1.50;;;20.80;74.30;;;;;;10366789;28;20022;-58
2023/07/27 21:25:02;;;;;;;2.45;1.15;;;20.80;74.30;;;;;;10365182;28;20571;-57
2023/07/27 21:30:03;;;;;;;5.55;1.45;;;20.80;74.40;;;;;;10365509;28;20079;-55
2023/07/27 21:35:04;;;;;;;2.17;1.13;;;20.80;74.30;;;;;;10366027;28;20034;-57
2023/07/27 21:40:06;;;;;;;1.70;0.90;;;20.80;74.40;;;;;;10365629;28;20046;-58
2023/07/27 21:45:07;;;;;;;1.98;1.20;;;20.80;74.20;;;;;;10366411;28;20088;-58
2023/07/27 21:50:08;;;;;;;3.88;1.02;;;20.80;74.40;;;;;;10366027;28;20028;-56
2023/07/27 21:55:09;;;;;;;2.35;1.00;;;20.70;74.20;;;;;;10365537;28;20034;-57
2023/07/27 22:00:10;;;;;;;3.30;1.25;;;20.70;74.20;;;;;;10365795;28;20069;-57
2023/07/27 22:05:11;;;;;;;1.45;1.00;;;20.70;74.10;;;;;;10365364;28;20030;-57
2023/07/27 22:10:12;;;;;;;2.03;1.08;;;20.70;74.00;;;;;;10351022;28;20054;-57
2023/07/27 22:15:16;;;;;;;1.75;1.25;;;20.80;74.10;;;;;;10339163;28;20026;-57
2023/07/27 22:20:17;;;;;;;2.88;1.23;;;20.80;74.20;;;;;;10364806;28;20100;-57
2023/07/27 22:25:17;;;;;;;1.60;1.17;;;20.70;74.10;;;;;;10365081;28;20457;-58
2023/07/27 22:30:18;;;;;;;1.85;1.02;;;20.70;74.20;;;;;;10365236;28;20110;-57
2023/07/27 22:35:19;;;;;;;3.42;1.67;;;20.70;74.10;;;;;;10357929;28;20031;-54
2023/07/27 22:40:19;;;;;;;3.05;1.15;;;20.70;74.10;;;;;;10323812;28;20047;-58
2023/07/27 22:45:20;;;;;;;1.85;0.98;;;20.70;74.10;;;;;;10324211;28;20106;-57
2023/07/27 22:50:21;;;;;;;2.67;1.17;;;20.70;74.00;;;;;;10323506;28;20602;-57
2023/07/27 22:55:21;;;;;;;2.88;1.27;;;20.70;74.00;;;;;;10323614;28;20062;-57
2023/07/27 23:00:23;;;;;;;1.90;1.20;;;20.70;74.10;;;;;;10323465;28;20030;-54
2023/07/27 23:05:24;;;;;;;2.30;0.90;;;20.70;74.10;;;;;;10348552;28;20033;-53
2023/07/27 23:10:24;;;;;;;1.63;1.05;;;20.70;73.90;;;;;;10348738;28;20493;-53
2023/07/27 23:15:25;;;;;;;2.05;1.08;;;20.70;74.10;;;;;;10339814;28;20034;-54
2023/07/27 23:20:26;;;;;;;1.48;1.05;;;20.70;73.90;;;;;;10365700;28;20084;-55
2023/07/27 23:25:26;;;;;;;2.55;1.08;;;20.70;73.90;;;;;;10370889;28;20708;-54
2023/07/27 23:30:29;;;;;;;2.30;1.40;;;20.70;73.90;;;;;;10371998;28;20029;-54
2023/07/27 23:35:33;;;;;;;1.65;0.95;;;20.70;73.80;;;;;;10370891;28;20378;-54
2023/07/27 23:40:34;;;;;;;1.65;1.27;;;20.70;73.90;;;;;;10370726;28;20112;-54
2023/07/27 23:45:35;;;;;;;2.60;1.15;;;20.70;73.90;;;;;;10370939;28;20562;-53
2023/07/27 23:50:35;;;;;;;2.50;1.10;;;20.70;73.90;;;;;;10369880;28;20499;-54
2023/07/27 23:55:36;;;;;;;2.40;1.13;;;20.70;73.90;;;;;;10370051;28;20057;-52
